sensor_id;sensor_type;location;lat;lon;timestamp;pressure;altitude;pressure_sealevel;temperature
15680;BMP180;15488;48.114;11.532;2024-03-25T00:02:05;94518.00;;;10.90
15680;BMP180;15488;48.114;11.532;2024-03-25T00:04:32;94527.00;;;10.90
15680;BMP180;15488;48.114;11.532;2024-03-25T00:07:00;94530.00;;;10.90
15680;BMP180;15488;48.114;11.532;2024-03-25T00:09:27;94524.00;;;10.90
15680;BMP180;15488;48.114;11.532;2024-03-25T00:11:54;94530.00;;;10.30
15680;BMP180;15488;48.114;11.532;2024-03-25T00:14:21;94526.00;;;11.00
15680;BMP180;15488;48.114;11.532;2024-03-25T00:16:49;94530.00;;;11.00
15680;BMP180;15488;48.114;11.532;2024-03-25T00:19:18;94530.00;;;11.10
15680;BMP180;15488;48.114;11.532;2024-03-25T00:21:45;94532.00;;;11.00
15680;BMP180;15488;48.114;11.532;2024-03-25T00:24:12;94525.00;;;11.00
15680;BMP180;15488;48.114;11.532;2024-03-25T00:26:40;94523.00;;;11.00
15680;BMP180;15488;48.114;11.532;2024-03-25T00:29:07;94524.00;;;11.10
15680;BMP180;15488;48.114;11.532;2024-03-25T00:31:34;94526.00;;;11.10
15680;BMP180;15488;48.114;11.532;2024-03-25T00:34:01;94526.00;;;11.10
15680;BMP180;15488;48.114;11.532;2024-03-25T00:36:30;94526.00;;;11.10
15680;BMP180;15488;48.114;11.532;2024-03-25T00:38:57;94520.00;;;11.10
15680;BMP180;15488;48.114;11.532;2024-03-25T00:41:25;94525.00;;;11.10
15680;BMP180;15488;48.114;11.532;2024-03-25T00:43:51;94518.00;;;11.10
15680;BMP180;15488;48.114;11.532;2024-03-25T00:46:19;94522.00;;;11.10
15680;BMP180;15488;48.114;11.532;2024-03-25T00:48:46;94520.00;;;11.20
15680;BMP180;15488;48.114;11.532;2024-03-25T00:51:14;94512.00;;;11.20
15680;BMP180;15488;48.114;11.532;2024-03-25T00:53:42;94513.00;;;11.20
15680;BMP180;15488;48.114;11.532;2024-03-25T00:56:10;94501.00;;;11.20
15680;BMP180;15488;48.114;11.532;2024-03-25T00:58:36;94507.00;;;11.20
15680;BMP180;15488;48.114;11.532;2024-03-25T01:01:04;94513.00;;;11.20
15680;BMP180;15488;48.114;11.532;2024-03-25T01:03:31;94507.00;;;11.20
15680;BMP180;15488;48.114;11.532;2024-03-25T01:06:00;94502.00;;;11.30
15680;BMP180;15488;48.114;11.532;2024-03-25T01:08:27;94511.00;;;11.20
15680;BMP180;15488;48.114;11.532;2024-03-25T01:10:56;94515.00;;;11.20
15680;BMP180;15488;48.114;11.532;2024-03-25T01:13:23;94503.00;;;11.30
15680;BMP180;15488;48.114;11.532;2024-03-25T01:15:50;94505.00;;;11.30
15680;BMP180;15488;48.114;11.532;2024-03-25T01:18:17;94508.00;;;11.20
15680;BMP180;15488;48.114;11.532;2024-03-25T01:20:45;94507.00;;;11.20
15680;BMP180;15488;48.114;11.532;2024-03-25T01:23:12;94502.00;;;11.20
15680;BMP180;15488;48.114;11.532;2024-03-25T01:25:39;94508.00;;;11.20
15680;BMP180;15488;48.114;11.532;2024-03-25T01:28:08;94516.00;;;11.10
15680;BMP180;15488;48.114;11.532;2024-03-25T01:30:35;94537.00;;;11.00
15680;BMP180;15488;48.114;11.532;2024-03-25T01:33:05;94509.00;;;11.00
15680;BMP180;15488;48.114;11.532;2024-03-25T01:35:33;94498.00;;;10.90
15680;BMP180;15488;48.114;11.532;2024-03-25T01:38:00;94505.00;;;10.90
15680;BMP180;15488;48.114;11.532;2024-03-25T01:40:29;94501.00;;;11.00
15680;BMP180;15488;48.114;11.532;2024-03-25T01:42:56;94515.00;;;11.00
15680;BMP180;15488;48.114;11.532;2024-03-25T01:45:26;94505.00;;;11.00
15680;BMP180;15488;48.114;11.532;2024-03-25T01:47:54;94497.00;;;11.00
15680;BMP180;15488;48.114;11.532;2024-03-25T01:50:23;94496.00;;;10.90
15680;BMP180;15488;48.114;11.532;2024-03-25T01:52:50;94500.00;;;11.00
15680;BMP180;15488;48.114;11.532;2024-03-25T01:55:21;94501.00;;;10.90
15680;BMP180;15488;48.114;11.532;2024-03-25T01:57:49;94499.00;;;11.00
15680;BMP180;15488;48.114;11.532;2024-03-25T02:00:18;94511.00;;;10.90
15680;BMP180;15488;48.114;11.532;2024-03-25T02:02:46;94505.00;;;10.90
15680;BMP180;15488;48.114;11.532;2024-03-25T02:05:15;94503.00;;;10.90
15680;BMP180;15488;48.114;11.532;2024-03-25T02:07:43;94499.00;;;10.80
15680;BMP180;15488;48.114;11.532;2024-03-25T02:10:11;94498.00;;;10.80
15680;BMP180;15488;48.114;11.532;2024-03-25T02:12:41;94502.00;;;10.80
15680;BMP180;15488;48.114;11.532;2024-03-25T02:15:10;94486.00;;;10.90
15680;BMP180;15488;48.114;11.532;2024-03-25T02:17:37;94485.00;;;10.90
15680;BMP180;15488;48.114;11.532;2024-03-25T02:20:07;94495.00;;;11.00
15680;BMP180;15488;48.114;11.532;2024-03-25T02:22:35;94502.00;;;10.90
15680;BMP180;15488;48.114;11.532;2024-03-25T02:25:06;94495.00;;;10.90
15680;BMP180;15488;48.114;11.532;2024-03-25T02:27:35;94502.00;;;10.90
15680;BMP180;15488;48.114;11.532;2024-03-25T02:30:04;94498.00;;;10.90
15680;BMP180;15488;48.114;11.532;2024-03-25T02:32:32;94504.00;;;10.80
15680;BMP180;15488;48.114;11.532;2024-03-25T02:35:00;94500.00;;;10.80
15680;BMP180;15488;48.114;11.532;2024-03-25T02:37:27;94486.00;;;10.80
15680;BMP180;15488;48.114;11.532;2024-03-25T02:39:57;94495.00;;;10.80
15680;BMP180;15488;48.114;11.532;2024-03-25T02:42:25;94490.00;;;10.80
15680;BMP180;15488;48.114;11.532;2024-03-25T02:44:54;94495.00;;;10.80
15680;BMP180;15488;48.114;11.532;2024-03-25T02:47:21;94499.00;;;10.80
15680;BMP180;15488;48.114;11.532;2024-03-25T02:49:49;94496.00;;;10.80
15680;BMP180;15488;48.114;11.532;2024-03-25T02:52:16;94498.00;;;10.90
15680;BMP180;15488;48.114;11.532;2024-03-25T02:54:44;94504.00;;;10.90
15680;BMP180;15488;48.114;11.532;2024-03-25T02:57:11;94513.00;;;10.90
15680;BMP180;15488;48.114;11.532;2024-03-25T02:59:38;94486.00;;;10.90
15680;BMP180;15488;48.114;11.532;2024-03-25T03:02:07;94494.00;;;10.80
15680;BMP180;15488;48.114;11.532;2024-03-25T03:04:34;94498.00;;;10.80
15680;BMP180;15488;48.114;11.532;2024-03-25T03:07:01;94506.00;;;10.80
15680;BMP180;15488;48.114;11.532;2024-03-25T03:09:29;94500.00;;;10.80
15680;BMP180;15488;48.114;11.532;2024-03-25T03:11:56;94495.00;;;10.80
15680;BMP180;15488;48.114;11.532;2024-03-25T03:14:23;94506.00;;;10.80
15680;BMP180;15488;48.114;11.532;2024-03-25T03:16:50;94503.00;;;10.80
15680;BMP180;15488;48.114;11.532;2024-03-25T03:19:22;94511.00;;;10.90
15680;BMP180;15488;48.114;11.532;2024-03-25T03:21:49;94502.00;;;10.90
15680;BMP180;15488;48.114;11.532;2024-03-25T03:24:16;94517.00;;;10.90
15680;BMP180;15488;48.114;11.532;2024-03-25T03:26:44;94520.00;;;10.90
15680;BMP180;15488;48.114;11.532;2024-03-25T03:29:12;94519.00;;;10.90
15680;BMP180;15488;48.114;11.532;2024-03-25T03:31:39;94521.00;;;10.80
15680;BMP180;15488;48.114;11.532;2024-03-25T03:34:07;94517.00;;;10.80
15680;BMP180;15488;48.114;11.532;2024-03-25T03:36:35;94522.00;;;10.90
15680;BMP180;15488;48.114;11.532;2024-03-25T03:39:03;94531.00;;;10.80
15680;BMP180;15488;48.114;11.532;2024-03-25T03:41:29;94530.00;;;10.90
15680;BMP180;15488;48.114;11.532;2024-03-25T03:43:57;94527.00;;;10.90
15680;BMP180;15488;48.114;11.532;2024-03-25T03:46:24;94533.00;;;10.90
15680;BMP180;15488;48.114;11.532;2024-03-25T03:48:52;94520.00;;;10.80
15680;BMP180;15488;48.114;11.532;2024-03-25T03:51:18;94529.00;;;10.90
15680;BMP180;15488;48.114;11.532;2024-03-25T03:53:48;94526.00;;;10.80
15680;BMP180;15488;48.114;11.532;2024-03-25T03:56:14;94528.00;;;10.80
15680;BMP180;15488;48.114;11.532;2024-03-25T03:58:42;94525.00;;;10.80
15680;BMP180;15488;48.114;11.532;2024-03-25T04:01:15;94527.00;;;10.80
15680;BMP180;15488;48.114;11.532;2024-03-25T04:03:43;94526.00;;;10.90
15680;BMP180;15488;48.114;11.532;2024-03-25T04:06:12;94522.00;;;10.90
15680;BMP180;15488;48.114;11.532;2024-03-25T04:08:39;94536.00;;;10.90
15680;BMP180;15488;48.114;11.532;2024-03-25T04:11:08;94523.00;;;10.90
15680;BMP180;15488;48.114;11.532;2024-03-25T04:13:36;94519.00;;;10.90
15680;BMP180;15488;48.114;11.532;2024-03-25T04:16:05;94518.00;;;10.80
15680;BMP180;15488;48.114;11.532;2024-03-25T04:18:32;94529.00;;;10.90
15680;BMP180;15488;48.114;11.532;2024-03-25T04:21:01;94523.00;;;10.90
15680;BMP180;15488;48.114;11.532;2024-03-25T04:23:27;94530.00;;;10.80
15680;BMP180;15488;48.114;11.532;2024-03-25T04:25:55;94527.00;;;10.80
15680;BMP180;15488;48.114;11.532;2024-03-25T04:28:23;94518.00;;;10.70
15680;BMP180;15488;48.114;11.532;2024-03-25T04:30:52;94518.00;;;10.70
15680;BMP180;15488;48.114;11.532;2024-03-25T04:33:19;94521.00;;;10.70
15680;BMP180;15488;48.114;11.532;2024-03-25T04:35:47;94528.00;;;10.70
15680;BMP180;15488;48.114;11.532;2024-03-25T04:38:15;94519.00;;;10.70
15680;BMP180;15488;48.114;11.532;2024-03-25T04:40:43;94519.00;;;10.70
15680;BMP180;15488;48.114;11.532;2024-03-25T04:43:10;94518.00;;;10.70
15680;BMP180;15488;48.114;11.532;2024-03-25T04:45:38;94520.00;;;10.60
15680;BMP180;15488;48.114;11.532;2024-03-25T04:48:06;94531.00;;;10.60
15680;BMP180;15488;48.114;11.532;2024-03-25T04:50:33;94533.00;;;10.60
15680;BMP180;15488;48.114;11.532;2024-03-25T04:53:00;94525.00;;;10.60
15680;BMP180;15488;48.114;11.532;2024-03-25T04:55:26;94519.00;;;10.60
15680;BMP180;15488;48.114;11.532;2024-03-25T04:57:53;94519.00;;;10.50
15680;BMP180;15488;48.114;11.532;2024-03-25T05:00:20;94527.00;;;10.50
15680;BMP180;15488;48.114;11.532;2024-03-25T05:02:48;94533.00;;;10.50
15680;BMP180;15488;48.114;11.532;2024-03-25T05:05:15;94532.00;;;10.50
15680;BMP180;15488;48.114;11.532;2024-03-25T05:07:41;94535.00;;;10.50
15680;BMP180;15488;48.114;11.532;2024-03-25T05:10:08;94536.00;;;10.50
15680;BMP180;15488;48.114;11.532;2024-03-25T05:12:35;94539.00;;;10.40
15680;BMP180;15488;48.114;11.532;2024-03-25T05:15:02;94549.00;;;10.40
15680;BMP180;15488;48.114;11.532;2024-03-25T05:17:29;94554.00;;;10.50
15680;BMP180;15488;48.114;11.532;2024-03-25T05:22:23;94551.00;;;10.40
15680;BMP180;15488;48.114;11.532;2024-03-25T05:24:49;94547.00;;;10.40
15680;BMP180;15488;48.114;11.532;2024-03-25T05:27:16;94559.00;;;10.40
15680;BMP180;15488;48.114;11.532;2024-03-25T05:29:43;94558.00;;;10.30
15680;BMP180;15488;48.114;11.532;2024-03-25T05:32:10;94555.00;;;10.30
15680;BMP180;15488;48.114;11.532;2024-03-25T05:34:36;94553.00;;;10.20
15680;BMP180;15488;48.114;11.532;2024-03-25T05:37:03;94557.00;;;10.20
15680;BMP180;15488;48.114;11.532;2024-03-25T05:39:31;94559.00;;;10.20
15680;BMP180;15488;48.114;11.532;2024-03-25T05:41:58;94557.00;;;10.20
15680;BMP180;15488;48.114;11.532;2024-03-25T05:44:25;94556.00;;;10.30
15680;BMP180;15488;48.114;11.532;2024-03-25T05:46:51;94561.00;;;10.30
15680;BMP180;15488;48.114;11.532;2024-03-25T05:49:18;94564.00;;;10.30
15680;BMP180;15488;48.114;11.532;2024-03-25T05:51:45;94567.00;;;10.30
15680;BMP180;15488;48.114;11.532;2024-03-25T05:54:11;94565.00;;;10.30
15680;BMP180;15488;48.114;11.532;2024-03-25T05:56:39;94571.00;;;10.30
15680;BMP180;15488;48.114;11.532;2024-03-25T05:59:06;94574.00;;;10.40
15680;BMP180;15488;48.114;11.532;2024-03-25T06:01:33;94562.00;;;10.50
15680;BMP180;15488;48.114;11.532;2024-03-25T06:04:00;94563.00;;;10.40
15680;BMP180;15488;48.114;11.532;2024-03-25T06:06:26;94567.00;;;10.50
15680;BMP180;15488;48.114;11.532;2024-03-25T06:08:53;94568.00;;;10.50
15680;BMP180;15488;48.114;11.532;2024-03-25T06:11:20;94568.00;;;10.50
15680;BMP180;15488;48.114;11.532;2024-03-25T06:13:48;94571.00;;;10.50
15680;BMP180;15488;48.114;11.532;2024-03-25T06:16:15;94571.00;;;10.60
15680;BMP180;15488;48.114;11.532;2024-03-25T06:18:41;94570.00;;;10.60
15680;BMP180;15488;48.114;11.532;2024-03-25T06:21:08;94565.00;;;10.50
15680;BMP180;15488;48.114;11.532;2024-03-25T06:23:35;94576.00;;;10.50
15680;BMP180;15488;48.114;11.532;2024-03-25T06:26:02;94576.00;;;10.60
15680;BMP180;15488;48.114;11.532;2024-03-25T06:28:28;94580.00;;;10.50
15680;BMP180;15488;48.114;11.532;2024-03-25T06:30:56;94568.00;;;10.50
15680;BMP180;15488;48.114;11.532;2024-03-25T06:33:42;94589.00;;;10.60
15680;BMP180;15488;48.114;11.532;2024-03-25T06:36:27;94587.00;;;10.60
15680;BMP180;15488;48.114;11.532;2024-03-25T06:38:53;94586.00;;;10.60
15680;BMP180;15488;48.114;11.532;2024-03-25T06:41:20;94587.00;;;10.60
15680;BMP180;15488;48.114;11.532;2024-03-25T06:43:47;94584.00;;;10.70
15680;BMP180;15488;48.114;11.532;2024-03-25T06:46:15;94586.00;;;10.80
15680;BMP180;15488;48.114;11.532;2024-03-25T06:48:41;94590.00;;;10.80
15680;BMP180;15488;48.114;11.532;2024-03-25T06:51:08;94591.00;;;10.80
15680;BMP180;15488;48.114;11.532;2024-03-25T06:53:35;94587.00;;;10.80
15680;BMP180;15488;48.114;11.532;2024-03-25T06:56:02;94596.00;;;10.90
15680;BMP180;15488;48.114;11.532;2024-03-25T06:58:29;94588.00;;;10.90
15680;BMP180;15488;48.114;11.532;2024-03-25T07:00:56;94588.00;;;11.00
15680;BMP180;15488;48.114;11.532;2024-03-25T07:03:24;94588.00;;;11.00
15680;BMP180;15488;48.114;11.532;2024-03-25T07:05:52;94593.00;;;11.10
15680;BMP180;15488;48.114;11.532;2024-03-25T07:08:19;94587.00;;;11.20
15680;BMP180;15488;48.114;11.532;2024-03-25T07:10:46;94592.00;;;11.10
15680;BMP180;15488;48.114;11.532;2024-03-25T07:13:12;94590.00;;;11.20
15680;BMP180;15488;48.114;11.532;2024-03-25T07:15:39;94582.00;;;11.20
15680;BMP180;15488;48.114;11.532;2024-03-25T07:18:06;94587.00;;;11.20
15680;BMP180;15488;48.114;11.532;2024-03-25T07:20:35;94580.00;;;11.40
15680;BMP180;15488;48.114;11.532;2024-03-25T07:23:02;94585.00;;;11.40
15680;BMP180;15488;48.114;11.532;2024-03-25T07:25:29;94581.00;;;11.40
15680;BMP180;15488;48.114;11.532;2024-03-25T07:27:56;94591.00;;;11.60
15680;BMP180;15488;48.114;11.532;2024-03-25T07:30:22;94591.00;;;11.60
15680;BMP180;15488;48.114;11.532;2024-03-25T07:32:52;94592.00;;;11.70
15680;BMP180;15488;48.114;11.532;2024-03-25T07:35:19;94594.00;;;11.70
15680;BMP180;15488;48.114;11.532;2024-03-25T07:37:47;94581.00;;;11.70
15680;BMP180;15488;48.114;11.532;2024-03-25T07:40:15;94583.00;;;11.80
15680;BMP180;15488;48.114;11.532;2024-03-25T07:42:41;94588.00;;;11.90
15680;BMP180;15488;48.114;11.532;2024-03-25T07:45:08;94587.00;;;11.90
15680;BMP180;15488;48.114;11.532;2024-03-25T07:47:35;94586.00;;;12.00
15680;BMP180;15488;48.114;11.532;2024-03-25T07:50:03;94590.00;;;12.00
15680;BMP180;15488;48.114;11.532;2024-03-25T07:52:30;94588.00;;;12.10
15680;BMP180;15488;48.114;11.532;2024-03-25T07:54:58;94581.00;;;12.10
15680;BMP180;15488;48.114;11.532;2024-03-25T07:57:25;94592.00;;;12.20
15680;BMP180;15488;48.114;11.532;2024-03-25T07:59:52;94588.00;;;12.20
15680;BMP180;15488;48.114;11.532;2024-03-25T08:02:18;94588.00;;;12.30
15680;BMP180;15488;48.114;11.532;2024-03-25T08:04:45;94577.00;;;12.30
15680;BMP180;15488;48.114;11.532;2024-03-25T08:07:12;94571.00;;;12.30
15680;BMP180;15488;48.114;11.532;2024-03-25T08:09:38;94572.00;;;12.40
15680;BMP180;15488;48.114;11.532;2024-03-25T08:12:07;94573.00;;;12.10
15680;BMP180;15488;48.114;11.532;2024-03-25T08:14:34;94566.00;;;12.40
15680;BMP180;15488;48.114;11.532;2024-03-25T08:17:01;94565.00;;;12.40
15680;BMP180;15488;48.114;11.532;2024-03-25T08:19:27;94571.00;;;12.60
15680;BMP180;15488;48.114;11.532;2024-03-25T08:21:54;94577.00;;;12.60
15680;BMP180;15488;48.114;11.532;2024-03-25T08:24:21;94575.00;;;12.70
15680;BMP180;15488;48.114;11.532;2024-03-25T08:26:47;94574.00;;;12.70
15680;BMP180;15488;48.114;11.532;2024-03-25T08:29:16;94573.00;;;12.80
15680;BMP180;15488;48.114;11.532;2024-03-25T08:31:42;94580.00;;;12.90
15680;BMP180;15488;48.114;11.532;2024-03-25T08:34:12;94575.00;;;12.90
15680;BMP180;15488;48.114;11.532;2024-03-25T08:36:38;94569.00;;;13.00
15680;BMP180;15488;48.114;11.532;2024-03-25T08:39:05;94577.00;;;13.00
15680;BMP180;15488;48.114;11.532;2024-03-25T08:41:32;94576.00;;;13.00
15680;BMP180;15488;48.114;11.532;2024-03-25T08:43:59;94569.00;;;13.00
15680;BMP180;15488;48.114;11.532;2024-03-25T08:46:28;94578.00;;;13.10
15680;BMP180;15488;48.114;11.532;2024-03-25T08:48:55;94565.00;;;13.10
15680;BMP180;15488;48.114;11.532;2024-03-25T08:51:22;94574.00;;;13.10
15680;BMP180;15488;48.114;11.532;2024-03-25T08:53:48;94572.00;;;13.10
15680;BMP180;15488;48.114;11.532;2024-03-25T08:56:15;94572.00;;;13.20
15680;BMP180;15488;48.114;11.532;2024-03-25T08:58:42;94571.00;;;13.20
15680;BMP180;15488;48.114;11.532;2024-03-25T09:01:09;94556.00;;;13.30
15680;BMP180;15488;48.114;11.532;2024-03-25T09:03:37;94556.00;;;13.50
15680;BMP180;15488;48.114;11.532;2024-03-25T09:06:04;94554.00;;;13.40
15680;BMP180;15488;48.114;11.532;2024-03-25T09:08:31;94558.00;;;13.40
15680;BMP180;15488;48.114;11.532;2024-03-25T09:10:58;94547.00;;;13.50
15680;BMP180;15488;48.114;11.532;2024-03-25T09:13:30;94556.00;;;13.60
15680;BMP180;15488;48.114;11.532;2024-03-25T09:16:00;94543.00;;;13.60
15680;BMP180;15488;48.114;11.532;2024-03-25T09:18:27;94534.00;;;13.70
15680;BMP180;15488;48.114;11.532;2024-03-25T09:20:55;94543.00;;;13.80
15680;BMP180;15488;48.114;11.532;2024-03-25T09:23:22;94536.00;;;13.90
15680;BMP180;15488;48.114;11.532;2024-03-25T09:25:52;94535.00;;;14.00
15680;BMP180;15488;48.114;11.532;2024-03-25T09:28:19;94537.00;;;14.00
15680;BMP180;15488;48.114;11.532;2024-03-25T09:30:45;94534.00;;;14.20
15680;BMP180;15488;48.114;11.532;2024-03-25T09:33:13;94527.00;;;14.30
15680;BMP180;15488;48.114;11.532;2024-03-25T09:35:40;94524.00;;;14.40
15680;BMP180;15488;48.114;11.532;2024-03-25T09:38:08;94520.00;;;14.50
15680;BMP180;15488;48.114;11.532;2024-03-25T09:40:36;94523.00;;;14.50
15680;BMP180;15488;48.114;11.532;2024-03-25T09:43:10;94525.00;;;14.70
15680;BMP180;15488;48.114;11.532;2024-03-25T09:45:40;94528.00;;;14.70
15680;BMP180;15488;48.114;11.532;2024-03-25T09:48:08;94523.00;;;14.90
15680;BMP180;15488;48.114;11.532;2024-03-25T09:50:35;94571.00;;;14.90
15680;BMP180;15488;48.114;11.532;2024-03-25T09:53:03;94526.00;;;14.90
15680;BMP180;15488;48.114;11.532;2024-03-25T09:55:31;94522.00;;;14.90
15680;BMP180;15488;48.114;11.532;2024-03-25T09:57:59;94524.00;;;15.10
15680;BMP180;15488;48.114;11.532;2024-03-25T10:00:27;94520.00;;;15.20
15680;BMP180;15488;48.114;11.532;2024-03-25T10:02:53;94510.00;;;15.20
15680;BMP180;15488;48.114;11.532;2024-03-25T10:05:20;94507.00;;;15.30
15680;BMP180;15488;48.114;11.532;2024-03-25T10:07:47;94499.00;;;15.40
15680;BMP180;15488;48.114;11.532;2024-03-25T10:10:18;94493.00;;;15.40
15680;BMP180;15488;48.114;11.532;2024-03-25T10:12:46;94490.00;;;15.50
15680;BMP180;15488;48.114;11.532;2024-03-25T10:15:16;94494.00;;;15.40
15680;BMP180;15488;48.114;11.532;2024-03-25T10:17:43;94494.00;;;15.40
15680;BMP180;15488;48.114;11.532;2024-03-25T10:20:14;94494.00;;;15.50
15680;BMP180;15488;48.114;11.532;2024-03-25T10:22:45;94487.00;;;15.50
15680;BMP180;15488;48.114;11.532;2024-03-25T10:25:22;94481.00;;;15.50
15680;BMP180;15488;48.114;11.532;2024-03-25T10:27:57;94478.00;;;15.50
15680;BMP180;15488;48.114;11.532;2024-03-25T10:30:25;94475.00;;;15.60
15680;BMP180;15488;48.114;11.532;2024-03-25T10:32:59;94474.00;;;15.60
15680;BMP180;15488;48.114;11.532;2024-03-25T10:35:27;94468.00;;;15.60
15680;BMP180;15488;48.114;11.532;2024-03-25T10:37:57;94466.00;;;15.80
15680;BMP180;15488;48.114;11.532;2024-03-25T10:40:27;94466.00;;;15.90
15680;BMP180;15488;48.114;11.532;2024-03-25T10:43:01;94468.00;;;15.90
15680;BMP180;15488;48.114;11.532;2024-03-25T10:45:30;94461.00;;;16.00
15680;BMP180;15488;48.114;11.532;2024-03-25T10:47:58;94455.00;;;16.00
15680;BMP180;15488;48.114;11.532;2024-03-25T10:50:29;94458.00;;;16.10
15680;BMP180;15488;48.114;11.532;2024-03-25T10:52:58;94464.00;;;16.20
15680;BMP180;15488;48.114;11.532;2024-03-25T10:55:25;94451.00;;;16.20
15680;BMP180;15488;48.114;11.532;2024-03-25T10:57:52;94441.00;;;16.20
15680;BMP180;15488;48.114;11.532;2024-03-25T11:00:23;94442.00;;;16.20
15680;BMP180;15488;48.114;11.532;2024-03-25T11:02:50;94438.00;;;16.20
15680;BMP180;15488;48.114;11.532;2024-03-25T11:05:18;94434.00;;;16.30
15680;BMP180;15488;48.114;11.532;2024-03-25T11:07:45;94427.00;;;16.30
15680;BMP180;15488;48.114;11.532;2024-03-25T11:10:12;94421.00;;;16.30
15680;BMP180;15488;48.114;11.532;2024-03-25T11:12:41;94416.00;;;16.30
15680;BMP180;15488;48.114;11.532;2024-03-25T11:15:09;94418.00;;;16.40
15680;BMP180;15488;48.114;11.532;2024-03-25T11:17:37;94423.00;;;16.40
15680;BMP180;15488;48.114;11.532;2024-03-25T11:20:16;94414.00;;;16.50
15680;BMP180;15488;48.114;11.532;2024-03-25T11:22:49;94413.00;;;16.50
15680;BMP180;15488;48.114;11.532;2024-03-25T11:25:16;94355.00;;;16.50
15680;BMP180;15488;48.114;11.532;2024-03-25T11:27:44;94398.00;;;16.60
15680;BMP180;15488;48.114;11.532;2024-03-25T11:30:11;94384.00;;;16.70
15680;BMP180;15488;48.114;11.532;2024-03-25T11:32:47;94390.00;;;16.80
15680;BMP180;15488;48.114;11.532;2024-03-25T11:35:17;94383.00;;;17.00
15680;BMP180;15488;48.114;11.532;2024-03-25T11:37:44;94386.00;;;17.10
15680;BMP180;15488;48.114;11.532;2024-03-25T11:40:12;94379.00;;;17.20
15680;BMP180;15488;48.114;11.532;2024-03-25T11:42:39;94372.00;;;17.30
15680;BMP180;15488;48.114;11.532;2024-03-25T11:45:07;94370.00;;;17.40
15680;BMP180;15488;48.114;11.532;2024-03-25T11:47:34;94361.00;;;17.50
15680;BMP180;15488;48.114;11.532;2024-03-25T11:50:08;94355.00;;;17.60
15680;BMP180;15488;48.114;11.532;2024-03-25T11:52:35;94355.00;;;17.80
15680;BMP180;15488;48.114;11.532;2024-03-25T11:55:02;94359.00;;;18.00
15680;BMP180;15488;48.114;11.532;2024-03-25T11:57:29;94356.00;;;18.10
15680;BMP180;15488;48.114;11.532;2024-03-25T11:59:57;94357.00;;;18.30
15680;BMP180;15488;48.114;11.532;2024-03-25T12:02:24;94357.00;;;18.40
15680;BMP180;15488;48.114;11.532;2024-03-25T12:04:51;94348.00;;;18.60
15680;BMP180;15488;48.114;11.532;2024-03-25T12:07:19;94340.00;;;18.50
15680;BMP180;15488;48.114;11.532;2024-03-25T12:09:46;94331.00;;;18.90
15680;BMP180;15488;48.114;11.532;2024-03-25T12:12:33;94329.00;;;19.00
15680;BMP180;15488;48.114;11.532;2024-03-25T12:15:00;94330.00;;;19.10
15680;BMP180;15488;48.114;11.532;2024-03-25T12:17:28;94320.00;;;19.20
15680;BMP180;15488;48.114;11.532;2024-03-25T12:20:04;94320.00;;;19.30
15680;BMP180;15488;48.114;11.532;2024-03-25T12:22:32;94317.00;;;19.40
15680;BMP180;15488;48.114;11.532;2024-03-25T12:24:59;94312.00;;;19.50
15680;BMP180;15488;48.114;11.532;2024-03-25T12:27:27;94307.00;;;19.70
15680;BMP180;15488;48.114;11.532;2024-03-25T12:29:59;94308.00;;;19.80
15680;BMP180;15488;48.114;11.532;2024-03-25T12:32:41;94307.00;;;19.90
15680;BMP180;15488;48.114;11.532;2024-03-25T12:35:08;94302.00;;;20.10
15680;BMP180;15488;48.114;11.532;2024-03-25T12:37:37;94294.00;;;20.20
15680;BMP180;15488;48.114;11.532;2024-03-25T12:40:05;94289.00;;;20.30
15680;BMP180;15488;48.114;11.532;2024-03-25T12:42:32;94278.00;;;20.40
15680;BMP180;15488;48.114;11.532;2024-03-25T12:44:59;94282.00;;;20.50
15680;BMP180;15488;48.114;11.532;2024-03-25T12:47:25;94278.00;;;20.70
15680;BMP180;15488;48.114;11.532;2024-03-25T12:49:52;94275.00;;;20.80
15680;BMP180;15488;48.114;11.532;2024-03-25T12:52:19;94274.00;;;21.00
15680;BMP180;15488;48.114;11.532;2024-03-25T12:54:47;94277.00;;;21.20
15680;BMP180;15488;48.114;11.532;2024-03-25T12:57:14;94267.00;;;21.50
15680;BMP180;15488;48.114;11.532;2024-03-25T12:59:41;94266.00;;;21.80
15680;BMP180;15488;48.114;11.532;2024-03-25T13:02:10;94260.00;;;22.40
15680;BMP180;15488;48.114;11.532;2024-03-25T13:04:38;94244.00;;;23.30
15680;BMP180;15488;48.114;11.532;2024-03-25T13:07:05;94243.00;;;25.10
15680;BMP180;15488;48.114;11.532;2024-03-25T13:09:32;94250.00;;;26.90
15680;BMP180;15488;48.114;11.532;2024-03-25T13:12:00;94240.00;;;28.80
15680;BMP180;15488;48.114;11.532;2024-03-25T13:14:27;94238.00;;;30.40
15680;BMP180;15488;48.114;11.532;2024-03-25T13:16:54;94244.00;;;31.80
15680;BMP180;15488;48.114;11.532;2024-03-25T13:19:20;94242.00;;;33.10
15680;BMP180;15488;48.114;11.532;2024-03-25T13:21:47;94236.00;;;34.30
15680;BMP180;15488;48.114;11.532;2024-03-25T13:24:14;94235.00;;;35.30
15680;BMP180;15488;48.114;11.532;2024-03-25T13:26:41;94229.00;;;36.30
15680;BMP180;15488;48.114;11.532;2024-03-25T13:29:09;94225.00;;;37.10
15680;BMP180;15488;48.114;11.532;2024-03-25T13:31:36;94219.00;;;37.90
15680;BMP180;15488;48.114;11.532;2024-03-25T13:34:03;94223.00;;;38.60
15680;BMP180;15488;48.114;11.532;2024-03-25T13:36:30;94212.00;;;39.20
15680;BMP180;15488;48.114;11.532;2024-03-25T13:38:57;94208.00;;;39.70
15680;BMP180;15488;48.114;11.532;2024-03-25T13:41:24;94204.00;;;40.20
15680;BMP180;15488;48.114;11.532;2024-03-25T13:43:51;94198.00;;;40.60
15680;BMP180;15488;48.114;11.532;2024-03-25T13:46:19;94194.00;;;40.80
15680;BMP180;15488;48.114;11.532;2024-03-25T13:48:46;94191.00;;;41.00
15680;BMP180;15488;48.114;11.532;2024-03-25T13:51:13;94187.00;;;41.10
15680;BMP180;15488;48.114;11.532;2024-03-25T13:53:40;94194.00;;;41.10
15680;BMP180;15488;48.114;11.532;2024-03-25T13:56:07;94190.00;;;41.20
15680;BMP180;15488;48.114;11.532;2024-03-25T13:58:34;94184.00;;;41.00
15680;BMP180;15488;48.114;11.532;2024-03-25T14:01:00;94185.00;;;40.70
15680;BMP180;15488;48.114;11.532;2024-03-25T14:03:28;94179.00;;;40.40